Time;durP1;ratioP1;P1;durP2;ratioP2;P2;SDS_P1;SDS_P2;PMS_P1;PMS_P2;Temp;Humidity;BMP_temperature;BMP_pressure;BME280_temperature;BME280_humidity;BME280_pressure;Samples;Min_cycle;Max_cycle;Signal;HPM_P1;HPM_P2
2022/03/31 00:02:12;;;;;;;6.82;4.55;;;;;;;20.00;43.16;95141.63;10284702;28;20058;-58
2022/03/31 00:07:31;;;;;;;5.55;4.43;;;;;;;20.00;43.03;95148.97;10291868;28;20580;-57
2022/03/31 00:12:51;;;;;;;6.43;4.53;;;;;;;19.99;42.95;95158.22;10290631;28;20132;-57
2022/03/31 00:18:11;;;;;;;6.25;4.38;;;;;;;19.99;43.06;95155.50;10290173;28;20051;-58
2022/03/31 00:23:36;;;;;;;5.47;4.13;;;;;;;19.97;42.97;95158.56;10290503;28;20055;-58
2022/03/31 00:28:55;;;;;;;6.60;4.30;;;;;;;19.95;43.06;95161.66;10289765;28;20058;-56
2022/03/31 00:34:15;;;;;;;5.28;4.13;;;;;;;19.95;43.01;95155.47;10320021;28;20066;-58
2022/03/31 00:39:34;;;;;;;4.63;3.72;;;;;;;19.93;43.02;95157.75;10301870;28;20051;-58
2022/03/31 00:44:54;;;;;;;4.95;3.90;;;;;;;19.91;43.02;95150.00;10291673;28;20054;-57
2022/03/31 00:50:14;;;;;;;5.20;3.70;;;;;;;19.90;43.10;95143.06;10286528;28;20055;-58
2022/03/31 00:55:35;;;;;;;5.15;4.00;;;;;;;19.90;42.97;95158.50;10291720;28;20061;-58
2022/03/31 01:00:54;;;;;;;5.20;3.90;;;;;;;19.88;43.03;95158.84;10302324;28;20043;-57
2022/03/31 01:06:13;;;;;;;4.65;3.38;;;;;;;19.87;42.95;95159.22;10288064;28;20050;-58
2022/03/31 01:11:33;;;;;;;4.97;3.70;;;;;;;19.86;42.88;95153.03;10281351;28;20058;-58
2022/03/31 01:16:52;;;;;;;6.28;3.90;;;;;;;19.85;42.83;95148.00;10298034;28;20047;-58
2022/03/31 01:22:12;;;;;;;5.47;3.53;;;;;;;19.85;42.86;95137.19;10290080;28;20081;-58
2022/03/31 01:27:35;;;;;;;4.75;3.60;;;;;;;19.84;42.77;95135.63;10286517;28;20077;-58
2022/03/31 01:32:55;;;;;;;4.35;3.50;;;;;;;19.82;42.84;95132.53;10288413;28;20054;-58
2022/03/31 01:38:14;;;;;;;4.70;3.38;;;;;;;19.81;42.83;95120.91;10288574;28;20050;-58
2022/03/31 01:43:33;;;;;;;4.00;3.60;;;;;;;19.80;42.81;95123.97;10289736;28;20051;-58
2022/03/31 01:48:52;;;;;;;4.97;3.60;;;;;;;19.78;42.91;95118.16;10287037;28;20395;-58
2022/03/31 01:54:11;;;;;;;3.72;3.28;;;;;;;19.77;42.81;95109.28;10287561;28;20058;-58
2022/03/31 01:59:36;;;;;;;3.50;3.03;;;;;;;19.77;42.75;95105.81;10287692;28;20053;-58
2022/03/31 02:04:56;;;;;;;3.33;3.00;;;;;;;19.74;42.86;95102.69;10288010;28;20054;-58
2022/03/31 02:10:15;;;;;;;4.45;3.22;;;;;;;19.73;42.84;95100.34;10288265;28;20110;-58
2022/03/31 02:15:35;;;;;;;4.07;2.85;;;;;;;19.72;42.77;95088.00;10287196;28;20061;-58
2022/03/31 02:20:55;;;;;;;4.13;3.10;;;;;;;19.70;42.79;95099.16;10274674;28;20051;-58
2022/03/31 02:26:14;;;;;;;3.72;2.90;;;;;;;19.69;42.73;95097.56;10269664;28;20066;-58
2022/03/31 02:31:33;;;;;;;3.30;3.00;;;;;;;19.69;42.89;95088.69;10280421;28;20064;-58
2022/03/31 02:36:53;;;;;;;5.72;3.10;;;;;;;19.68;42.76;95090.63;10288053;28;20051;-58
2022/03/31 02:42:12;;;;;;;3.40;3.10;;;;;;;19.67;42.83;95085.59;10281828;28;20043;-58
2022/03/31 02:47:34;;;;;;;2.95;2.65;;;;;;;19.66;42.71;95078.63;10301591;28;20556;-58
2022/03/31 02:58:32;;;;;;;3.37;2.80;;;;;;;19.63;42.88;95068.56;10287473;28;20414;-57
2022/03/31 03:03:51;;;;;;;3.15;2.67;;;;;;;19.62;42.82;95066.97;10301571;28;20375;-58
2022/03/31 03:09:12;;;;;;;3.60;2.50;;;;;;;19.62;42.81;95066.97;10287891;28;20043;-56
2022/03/31 03:14:32;;;;;;;3.58;2.75;;;;;;;19.59;42.76;95071.19;10299997;28;20143;-57
2022/03/31 03:19:51;;;;;;;3.10;2.50;;;;;;;19.59;42.82;95079.31;10286045;28;20533;-58
2022/03/31 03:25:12;;;;;;;2.83;2.53;;;;;;;19.58;42.87;95076.97;10294775;28;20097;-58
2022/03/31 03:30:31;;;;;;;4.95;2.80;;;;;;;19.55;42.71;95063.06;10307029;28;20050;-58
2022/03/31 03:35:52;;;;;;;3.13;2.78;;;;;;;19.55;42.65;95062.28;10292076;28;20054;-58
2022/03/31 03:41:13;;;;;;;2.78;2.40;;;;;;;19.53;42.98;95057.25;10297566;28;20047;-58
2022/03/31 03:46:33;;;;;;;2.60;2.40;;;;;;;19.53;42.59;95059.94;10284849;28;20051;-58
2022/03/31 03:51:52;;;;;;;2.78;2.47;;;;;;;19.53;42.59;95062.63;10285490;28;20403;-58
2022/03/31 03:57:12;;;;;;;2.90;2.42;;;;;;;19.52;42.74;95057.59;10285024;28;20046;-58
2022/03/31 04:02:31;;;;;;;3.03;2.72;;;;;;;19.53;42.54;95064.56;10283366;28;20216;-58
2022/03/31 04:07:50;;;;;;;2.70;2.50;;;;;;;19.53;42.68;95059.94;10296612;28;20046;-58
2022/03/31 04:13:11;;;;;;;2.90;2.50;;;;;;;19.55;42.55;95054.94;10294539;28;20050;-57
2022/03/31 04:18:32;;;;;;;2.88;2.42;;;;;;;19.56;42.61;95055.72;10281402;28;20047;-57
2022/03/31 04:23:51;;;;;;;3.08;2.22;;;;;;;19.59;42.59;95068.50;10288046;28;20521;-56
2022/03/31 04:29:11;;;;;;;3.20;2.50;;;;;;;19.60;42.52;95063.88;10286129;28;20043;-58
2022/03/31 04:34:31;;;;;;;2.65;2.17;;;;;;;19.62;42.68;95062.38;10305549;28;20050;-57
2022/03/31 04:39:51;;;;;;;3.03;2.30;;;;;;;19.62;42.71;95061.59;10303399;28;20075;-58
2022/03/31 04:45:10;;;;;;;3.00;2.58;;;;;;;19.63;43.19;95057.75;10288131;28;20497;-58
2022/03/31 04:50:30;;;;;;;4.10;2.42;;;;;;;19.66;43.42;95067.81;10289161;28;20498;-58
2022/03/31 04:55:49;;;;;;;3.72;2.10;;;;;;;19.67;43.34;95061.28;10303440;28;20049;-59
2022/03/31 05:01:10;;;;;;;2.38;2.17;;;;;;;19.70;43.42;95042.41;10302129;28;20050;-58
2022/03/31 05:06:29;;;;;;;2.67;2.30;;;;;;;19.72;43.63;95042.84;10305087;28;20054;-58
2022/03/31 05:11:49;;;;;;;3.55;2.10;;;;;;;19.75;43.58;95039.41;10297007;28;20050;-59
2022/03/31 05:17:10;;;;;;;3.75;2.22;;;;;;;19.78;43.93;95039.81;10287843;28;20051;-59
2022/03/31 05:22:30;;;;;;;2.30;2.10;;;;;;;19.82;43.92;95040.66;10285445;28;20058;-58
2022/03/31 05:27:50;;;;;;;2.78;2.38;;;;;;;19.85;44.24;95032.56;10287079;28;20066;-58
2022/03/31 05:33:11;;;;;;;2.22;1.95;;;;;;;19.88;44.27;95050.75;10287836;28;20059;-59
2022/03/31 05:38:30;;;;;;;3.50;2.10;;;;;;;19.92;44.26;95048.88;10287144;28;20752;-59
2022/03/31 05:43:50;;;;;;;2.72;1.95;;;;;;;19.94;44.37;95043.88;10299600;28;20074;-59
2022/03/31 05:49:10;;;;;;;3.88;2.03;;;;;;;19.98;44.52;95049.31;10285514;28;20105;-60
2022/03/31 05:54:30;;;;;;;6.35;3.38;;;;;;;19.99;41.05;95052.78;10290116;28;20490;-59
2022/03/31 05:59:50;;;;;;;5.95;2.88;;;;;;;19.98;43.18;95057.44;10287500;28;20050;-58
2022/03/31 06:05:10;;;;;;;7.75;3.00;;;;;;;20.01;43.06;95050.50;10279499;28;20050;-59
2022/03/31 06:10:30;;;;;;;5.95;2.80;;;;;;;20.03;43.11;95062.53;10286567;28;20050;-59
2022/03/31 06:15:49;;;;;;;9.73;3.95;;;;;;;20.06;43.04;95071.81;10285372;28;20465;-60
2022/03/31 06:21:09;;;;;;;8.02;3.13;;;;;;;20.08;43.06;95061.41;10287377;28;20058;-59
2022/03/31 06:26:29;;;;;;;10.77;3.65;;;;;;;20.10;43.01;95059.09;10308258;28;20054;-59
2022/03/31 06:31:50;;;;;;;8.90;3.67;;;;;;;20.12;42.87;95062.22;10287903;28;20086;-59
2022/03/31 06:37:10;;;;;;;9.68;3.53;;;;;;;20.11;42.87;95056.03;10288461;28;20671;-59
2022/03/31 06:42:29;;;;;;;10.68;4.07;;;;;;;20.12;42.88;95051.41;10289304;28;20501;-59
2022/03/31 06:47:48;;;;;;;9.18;3.42;;;;;;;20.13;42.86;95051.03;10288709;28;20054;-59
2022/03/31 06:53:08;;;;;;;8.88;3.60;;;;;;;20.14;42.73;95043.69;10285710;28;20054;-59
2022/03/31 06:58:29;;;;;;;9.52;3.90;;;;;;;20.15;42.71;95048.75;10285587;28;20065;-60
2022/03/31 07:03:50;;;;;;;8.05;3.53;;;;;;;20.15;42.76;95037.16;10286087;28;20414;-60
2022/03/31 07:09:09;;;;;;;9.38;3.88;;;;;;;20.16;42.87;95041.41;10290590;28;20051;-59
2022/03/31 07:14:31;;;;;;;7.78;3.40;;;;;;;20.16;42.80;95041.41;10287758;28;20421;-60
2022/03/31 07:19:51;;;;;;;6.07;3.53;;;;;;;20.17;42.79;95051.09;10299358;28;20444;-59
2022/03/31 07:25:10;;;;;;;7.28;3.15;;;;;;;20.16;42.72;95049.50;10286900;28;20057;-59
2022/03/31 07:30:30;;;;;;;7.35;3.15;;;;;;;20.15;42.54;95048.75;10283964;28;20490;-59
2022/03/31 07:35:50;;;;;;;7.40;4.05;;;;;;;20.17;42.61;95061.91;10277966;28;20043;-58
2022/03/31 07:41:12;;;;;;;7.65;3.28;;;;;;;20.16;42.31;95063.03;10288435;28;20483;-56
2022/03/31 07:46:32;;;;;;;5.20;2.88;;;;;;;20.15;42.46;95061.50;10283022;28;20058;-57
2022/03/31 07:51:52;;;;;;;5.10;2.97;;;;;;;20.14;42.25;95059.94;10279559;28;20058;-56
2022/03/31 07:57:11;;;;;;;6.45;3.08;;;;;;;20.14;42.39;95059.94;10290526;28;20054;-57
2022/03/31 08:02:30;;;;;;;6.13;3.45;;;;;;;20.14;42.31;95073.44;10291772;28;20055;-56
2022/03/31 08:07:51;;;;;;;4.85;3.20;;;;;;;20.14;42.22;95070.75;10291903;28;20058;-58
2022/03/31 08:13:10;;;;;;;5.72;3.10;;;;;;;20.12;42.27;95073.03;10280010;28;20061;-58
2022/03/31 08:18:32;;;;;;;5.90;3.50;;;;;;;20.12;42.33;95067.63;10283008;28;20058;-56
2022/03/31 08:23:52;;;;;;;7.68;3.08;;;;;;;20.11;42.39;95063.34;10279585;28;20589;-58
2022/03/31 08:29:12;;;;;;;5.50;2.90;;;;;;;20.11;42.26;95068.75;10287669;28;20473;-57
2022/03/31 08:34:31;;;;;;;4.55;2.78;;;;;;;20.10;42.32;95059.88;10300447;28;20050;-59
2022/03/31 08:39:51;;;;;;;4.97;2.72;;;;;;;20.09;42.22;95058.34;10297994;28;20035;-59
2022/03/31 08:45:12;;;;;;;5.25;3.00;;;;;;;20.09;42.46;95062.94;10293244;28;20050;-58
2022/03/31 08:50:34;;;;;;;4.13;2.65;;;;;;;20.09;42.34;95065.66;10287813;28;20105;-60
2022/03/31 08:55:54;;;;;;;5.00;3.10;;;;;;;20.09;42.46;95052.13;10292021;28;20054;-59
2022/03/31 09:01:16;;;;;;;4.72;3.15;;;;;;;20.07;42.33;95052.53;10283158;28;20059;-59
2022/03/31 09:06:36;;;;;;;4.25;2.67;;;;;;;20.07;42.37;95046.31;10302588;28;20051;-59
2022/03/31 09:11:56;;;;;;;7.75;3.10;;;;;;;20.06;42.44;95037.44;10290091;28;20062;-59
2022/03/31 09:17:16;;;;;;;4.35;2.85;;;;;;;20.05;42.31;95027.00;10299446;28;20095;-59
2022/03/31 09:22:48;;;;;;;3.85;2.78;;;;;;;20.05;42.30;95024.28;10298258;28;20035;-59
2022/03/31 09:28:16;;;;;;;4.97;3.00;;;;;;;20.04;42.32;95028.94;10284674;28;20097;-59
2022/03/31 09:33:36;;;;;;;5.70;2.90;;;;;;;20.03;42.25;95029.28;10285212;28;20426;-58
2022/03/31 09:39:05;;;;;;;4.32;2.50;;;;;;;20.03;42.33;95030.09;10288765;28;20054;-59
2022/03/31 09:44:25;;;;;;;3.67;2.70;;;;;;;20.02;42.43;95028.50;10281367;28;20054;-60
2022/03/31 09:49:54;;;;;;;4.30;2.65;;;;;;;20.01;42.19;95031.59;10298427;28;20058;-59
2022/03/31 09:55:14;;;;;;;5.47;2.70;;;;;;;19.99;42.32;95029.25;10285030;28;20055;-58
2022/03/31 10:00:34;;;;;;;4.90;2.83;;;;;;;19.99;42.33;95025.78;10278229;28;20062;-59
2022/03/31 10:05:54;;;;;;;4.60;3.00;;;;;;;19.97;42.36;95023.44;10280004;28;20058;-59
2022/03/31 10:11:14;;;;;;;5.20;3.30;;;;;;;19.96;42.35;95024.59;10288384;28;20058;-59
2022/03/31 10:16:57;;;;;;;4.45;2.80;;;;;;;19.95;42.09;95026.53;10275227;28;20054;-59
2022/03/31 10:28:11;;;;;;;4.70;3.08;;;;;;;19.93;42.14;95017.22;10289623;28;20058;-59
2022/03/31 10:33:38;;;;;;;5.95;3.38;;;;;;;19.92;42.25;95015.66;10301614;28;20058;-59
2022/03/31 10:39:03;;;;;;;5.60;3.70;;;;;;;19.90;42.24;95013.31;10292633;28;20070;-58
2022/03/31 10:44:23;;;;;;;5.28;3.67;;;;;;;19.90;42.43;95012.56;10289414;28;20051;-58
2022/03/31 10:49:53;;;;;;;5.15;3.20;;;;;;;19.88;42.56;95007.53;10302274;28;20047;-58
2022/03/31 10:55:19;;;;;;;4.50;3.00;;;;;;;19.87;42.63;95010.59;10278551;28;20051;-59
2022/03/31 11:00:38;;;;;;;5.15;2.85;;;;;;;19.86;42.74;95004.41;10289028;28;20051;-59
2022/03/31 11:06:01;;;;;;;5.72;2.88;;;;;;;19.84;42.78;94993.19;10289173;28;20058;-59
2022/03/31 11:11:25;;;;;;;3.33;2.55;;;;;;;19.84;42.76;95004.00;10301830;28;20039;-59
2022/03/31 11:16:45;;;;;;;3.85;2.50;;;;;;;19.83;42.61;94999.72;10287411;28;20058;-58
2022/03/31 11:22:06;;;;;;;3.55;2.65;;;;;;;19.82;42.78;95000.13;10288379;28;20065;-59
2022/03/31 11:27:36;;;;;;;4.22;3.10;;;;;;;19.79;42.55;95001.63;10287943;28;20063;-59
2022/03/31 11:32:56;;;;;;;4.10;3.10;;;;;;;19.79;42.71;94996.22;10316684;28;20655;-59
2022/03/31 11:38:17;;;;;;;4.22;2.90;;;;;;;19.79;42.63;94992.75;10309551;28;20106;-59
2022/03/31 11:43:37;;;;;;;3.95;2.70;;;;;;;19.77;42.50;94990.41;10296122;28;20061;-58
2022/03/31 11:48:56;;;;;;;4.57;2.80;;;;;;;19.76;42.47;94978.06;10308876;28;20050;-60
2022/03/31 11:54:18;;;;;;;3.50;2.58;;;;;;;19.75;42.52;94968.38;10295989;28;20055;-59
2022/03/31 11:59:38;;;;;;;3.05;2.42;;;;;;;19.73;42.50;94967.97;10294968;28;20053;-59
2022/03/31 12:04:57;;;;;;;3.65;2.53;;;;;;;19.73;42.48;94957.16;10295465;28;20062;-59
2022/03/31 12:10:18;;;;;;;3.83;2.75;;;;;;;19.71;42.51;94959.44;10295170;28;20046;-59
2022/03/31 12:15:38;;;;;;;4.13;2.70;;;;;;;19.69;42.49;94954.41;10294647;28;20090;-59
2022/03/31 12:20:59;;;;;;;3.22;2.75;;;;;;;19.70;42.33;94949.78;10294645;28;20410;-58
2022/03/31 12:26:22;;;;;;;3.33;2.67;;;;;;;19.67;42.33;94937.78;10293907;28;20059;-59
2022/03/31 12:31:43;;;;;;;3.42;2.50;;;;;;;19.68;42.42;94938.53;10324387;28;20050;-59
2022/03/31 12:37:04;;;;;;;3.08;2.60;;;;;;;19.65;42.27;94937.38;10304093;28;20502;-59
2022/03/31 12:42:24;;;;;;;4.25;2.47;;;;;;;19.64;42.39;94938.53;10281575;28;20059;-58
2022/03/31 12:47:47;;;;;;;3.53;2.60;;;;;;;19.64;42.38;94933.13;10306847;28;20043;-59
2022/03/31 12:53:07;;;;;;;3.60;2.58;;;;;;;19.63;42.31;94938.91;10279111;28;20480;-59
2022/03/31 12:58:34;;;;;;;2.78;2.33;;;;;;;19.62;42.28;94934.63;10292781;28;20054;-58
2022/03/31 13:03:54;;;;;;;3.55;2.58;;;;;;;19.61;42.21;94927.69;10293148;28;20055;-59
2022/03/31 13:09:13;;;;;;;3.10;2.38;;;;;;;19.60;42.36;94923.41;10305989;28;20598;-59
2022/03/31 13:14:32;;;;;;;2.70;2.35;;;;;;;19.59;42.22;94919.94;10305212;28;20046;-58
2022/03/31 13:19:52;;;;;;;3.75;2.40;;;;;;;19.59;42.36;94922.66;10292601;28;20524;-59
2022/03/31 13:25:12;;;;;;;3.30;2.30;;;;;;;19.59;42.30;94919.19;10298905;28;20046;-59
2022/03/31 13:30:31;;;;;;;3.63;2.40;;;;;;;19.59;42.25;94913.78;10307910;28;20047;-59
2022/03/31 13:35:51;;;;;;;2.65;2.45;;;;;;;19.60;42.38;94913.41;10311612;28;20066;-59
2022/03/31 13:41:11;;;;;;;2.92;2.10;;;;;;;19.60;42.44;94901.81;10273355;28;20058;-59
2022/03/31 13:46:31;;;;;;;2.78;2.28;;;;;;;19.63;42.37;94899.16;10291587;28;20445;-59
2022/03/31 13:51:51;;;;;;;3.42;2.35;;;;;;;19.64;42.43;94898.00;10291867;28;20039;-60
2022/03/31 14:02:48;;;;;;;2.33;2.03;;;;;;;19.68;42.28;94892.63;10291310;28;20491;-59
2022/03/31 14:08:09;;;;;;;3.15;2.25;;;;;;;19.71;42.32;94891.91;10290985;28;20197;-59
2022/03/31 14:13:29;;;;;;;2.40;2.20;;;;;;;19.74;42.50;94885.78;10303732;28;20494;-59
2022/03/31 14:18:50;;;;;;;2.63;2.05;;;;;;;19.76;42.27;94883.50;10302666;28;20043;-59
2022/03/31 14:24:11;;;;;;;2.13;1.90;;;;;;;19.78;42.26;94875.78;10286667;28;20121;-58
2022/03/31 14:29:31;;;;;;;2.53;2.15;;;;;;;19.82;42.19;94875.84;10286660;28;20418;-59
2022/03/31 14:34:51;;;;;;;2.05;1.80;;;;;;;19.85;42.08;94866.97;10278684;28;20497;-59
2022/03/31 14:40:11;;;;;;;2.80;2.10;;;;;;;19.88;41.66;94868.94;10282711;28;20488;-58
2022/03/31 14:45:30;;;;;;;3.58;2.88;;;;;;;19.92;41.70;94875.13;10281618;28;20458;-57
2022/03/31 14:50:50;;;;;;;2.88;2.63;;;;;;;19.95;41.76;94867.06;10294026;28;20046;-58
2022/03/31 14:56:12;;;;;;;2.78;2.55;;;;;;;19.99;41.75;94867.06;10286967;28;20058;-57
2022/03/31 15:01:32;;;;;;;4.22;2.50;;;;;;;20.01;41.74;94864.78;10300930;28;20043;-59
2022/03/31 15:06:53;;;;;;;3.17;2.55;;;;;;;20.04;41.71;94861.34;10281236;28;20077;-59
2022/03/31 15:17:54;;;;;;;2.95;2.33;;;;;;;20.11;41.62;94852.50;10256623;28;20058;-59
2022/03/31 15:23:13;;;;;;;4.75;4.28;;;;;;;20.15;41.15;94851.38;10296117;28;20039;-59
2022/03/31 15:28:32;;;;;;;7.18;6.53;;;;;;;20.09;37.53;94846.69;10273623;28;20047;-57
2022/03/31 15:33:52;;;;;;;3.90;3.50;;;;;;;20.11;38.94;94844.38;10293098;28;20538;-59
2022/03/31 15:39:12;;;;;;;4.70;4.15;;;;;;;20.15;39.60;94842.50;10273747;28;20622;-58
2022/03/31 15:44:32;;;;;;;4.40;4.00;;;;;;;20.19;39.49;94843.31;10287828;28;20069;-59
2022/03/31 15:49:51;;;;;;;4.60;4.20;;;;;;;20.22;39.46;94847.94;10287338;28;20070;-58
2022/03/31 15:55:13;;;;;;;4.10;3.70;;;;;;;20.25;39.46;94849.91;10300952;28;20122;-59
2022/03/31 16:00:33;;;;;;;4.38;3.88;;;;;;;20.29;39.60;94848.00;10287967;28;20057;-58
2022/03/31 16:05:53;;;;;;;4.43;4.03;;;;;;;20.30;39.65;94852.25;10287113;28;20054;-57
2022/03/31 16:11:13;;;;;;;3.78;3.35;;;;;;;20.34;39.62;94858.47;10273259;28;20073;-58
2022/03/31 16:16:32;;;;;;;3.45;3.15;;;;;;;20.38;39.52;94853.09;10301920;28;20046;-58
2022/03/31 16:21:52;;;;;;;4.00;3.60;;;;;;;20.40;39.69;94853.47;10294338;28;20063;-58
2022/03/31 16:27:13;;;;;;;3.65;3.33;;;;;;;20.42;39.80;94855.81;10282827;28;20065;-56
2022/03/31 16:32:33;;;;;;;5.40;4.90;;;;;;;20.44;39.18;94864.31;10307089;28;20047;-59
2022/03/31 16:37:52;;;;;;;3.53;3.22;;;;;;;20.43;38.82;94865.50;10307876;28;20417;-58
2022/03/31 16:43:12;;;;;;;5.90;4.75;;;;;;;20.42;39.25;94866.63;10289408;28;20059;-59
2022/03/31 16:48:32;;;;;;;4.70;3.92;;;;;;;20.44;39.63;94865.09;10280020;28;20058;-60
2022/03/31 16:53:51;;;;;;;5.30;4.30;;;;;;;20.47;39.89;94871.69;10307315;28;20038;-60
2022/03/31 16:59:11;;;;;;;5.35;4.20;;;;;;;20.46;40.09;94873.59;10292719;28;20046;-60
2022/03/31 17:04:30;;;;;;;8.90;3.85;;;;;;;20.46;40.47;94875.53;10291401;28;20524;-59
2022/03/31 17:09:50;;;;;;;5.97;3.78;;;;;;;20.47;40.74;94882.53;10290180;28;20061;-55
2022/03/31 17:15:10;;;;;;;4.65;3.42;;;;;;;20.49;40.87;94880.22;10290739;28;20062;-59
2022/03/31 17:20:31;;;;;;;6.78;3.67;;;;;;;20.49;40.95;94880.22;10290908;28;20070;-53
2022/03/31 17:25:51;;;;;;;4.03;3.60;;;;;;;20.50;41.25;94882.53;10288007;28;20129;-53
2022/03/31 17:31:11;;;;;;;6.63;3.50;;;;;;;20.50;41.33;94895.28;10288241;28;20049;-59
2022/03/31 17:36:31;;;;;;;3.92;3.58;;;;;;;20.51;41.38;94888.72;10288398;28;20050;-54
2022/03/31 17:41:50;;;;;;;4.70;3.58;;;;;;;20.52;41.30;94880.25;10290827;28;20047;-55
2022/03/31 17:47:10;;;;;;;4.20;3.50;;;;;;;20.53;41.45;94883.72;10303040;28;20494;-52
2022/03/31 17:52:31;;;;;;;4.93;3.40;;;;;;;20.52;41.50;94877.53;10287231;28;20659;-52
2022/03/31 17:57:51;;;;;;;4.90;3.28;;;;;;;20.53;41.88;94878.31;10291378;28;20043;-55
2022/03/31 18:03:15;;;;;;;3.70;3.35;;;;;;;20.53;41.72;94881.00;10301848;28;20093;-57
2022/03/31 18:08:35;;;;;;;3.70;3.40;;;;;;;20.54;41.75;94890.66;10290208;28;20042;-53
2022/03/31 18:13:55;;;;;;;3.55;3.25;;;;;;;20.53;41.84;94891.81;10289656;28;20062;-53
2022/03/31 18:19:15;;;;;;;4.03;3.47;;;;;;;20.52;41.98;94892.97;10282396;28;20137;-52
2022/03/31 18:24:34;;;;;;;3.45;3.10;;;;;;;20.52;42.27;94907.28;10282739;28;20417;-53
2022/03/31 18:35:35;;;;;;;5.63;3.10;;;;;;;20.53;42.42;94910.75;10279882;28;20533;-57
2022/03/31 18:40:57;;;;;;;3.88;3.20;;;;;;;20.52;42.58;94906.50;10284021;28;20051;-61
2022/03/31 18:46:19;;;;;;;6.50;3.28;;;;;;;20.53;42.45;94918.88;10273595;28;20051;-56
2022/03/31 18:51:39;;;;;;;3.45;3.08;;;;;;;20.53;42.66;94925.06;10287405;28;20549;-56
2022/03/31 18:57:01;;;;;;;4.03;3.00;;;;;;;20.54;42.31;94920.41;10284025;28;20211;-56
2022/03/31 19:02:23;;;;;;;6.32;3.20;;;;;;;20.53;42.27;94929.69;10285579;28;20086;-56
2022/03/31 19:07:43;;;;;;;3.30;3.00;;;;;;;20.52;42.36;94925.44;10284029;28;20482;-57
2022/03/31 19:13:04;;;;;;;3.63;3.00;;;;;;;20.51;42.46;94921.94;10297215;28;20057;-57
2022/03/31 19:18:24;;;;;;;3.30;3.00;;;;;;;20.50;42.38;94916.91;10295357;28;20038;-58
2022/03/31 19:23:43;;;;;;;4.25;3.25;;;;;;;20.49;42.43;94924.25;10296980;28;20058;-57
2022/03/31 19:29:03;;;;;;;5.55;3.10;;;;;;;20.50;42.61;94930.44;10288220;28;20490;-55
2022/03/31 19:34:23;;;;;;;3.78;3.22;;;;;;;20.49;42.67;94928.91;10301663;28;20045;-54
2022/03/31 19:39:43;;;;;;;3.05;2.75;;;;;;;20.47;42.83;94933.91;10284335;28;20558;-53
2022/03/31 19:45:03;;;;;;;3.30;3.00;;;;;;;20.45;42.72;94928.88;10286070;28;20082;-55
2022/03/31 19:50:26;;;;;;;4.63;2.80;;;;;;;20.46;42.96;94921.53;10288174;28;20039;-50
2022/03/31 19:55:46;;;;;;;4.95;3.00;;;;;;;20.43;42.95;94922.28;10296535;28;20105;-55
2022/03/31 20:01:09;;;;;;;4.88;2.88;;;;;;;20.43;43.06;94925.00;10304902;28;20049;-52
2022/03/31 20:06:30;;;;;;;4.05;2.80;;;;;;;20.41;43.13;94908.38;10295363;28;20098;-51
2022/03/31 20:11:50;;;;;;;2.92;2.60;;;;;;;20.41;43.05;94914.53;10270964;28;20398;-50
2022/03/31 20:17:10;;;;;;;3.70;2.60;;;;;;;20.40;43.14;94921.09;10307185;28;20058;-51
2022/03/31 20:22:31;;;;;;;3.75;2.78;;;;;;;20.39;43.18;94918.78;10291392;28;20058;-53
2022/03/31 20:27:51;;;;;;;4.47;2.63;;;;;;;20.38;43.23;94914.50;10293713;28;20059;-59
2022/03/31 20:33:14;;;;;;;3.10;2.50;;;;;;;20.38;43.16;94906.41;10306001;28;20046;-56
2022/03/31 20:38:35;;;;;;;4.05;2.40;;;;;;;20.36;43.12;94901.34;10307969;28;20043;-60
2022/03/31 20:43:55;;;;;;;3.92;2.30;;;;;;;20.36;43.18;94901.34;10307350;28;20504;-59
2022/03/31 20:49:14;;;;;;;3.65;2.67;;;;;;;20.36;43.14;94906.75;10294184;28;20170;-62
2022/03/31 20:54:34;;;;;;;5.32;2.30;;;;;;;20.35;43.30;94891.72;10292817;28;20117;-59
2022/03/31 20:59:54;;;;;;;3.97;2.75;;;;;;;20.34;43.41;94896.31;10293601;28;20051;-59
2022/03/31 21:05:14;;;;;;;3.50;2.47;;;;;;;20.33;43.44;94900.19;10272257;28;20554;-60
2022/03/31 21:10:33;;;;;;;4.50;2.65;;;;;;;20.31;43.44;94899.78;10293517;28;20055;-57
2022/03/31 21:15:53;;;;;;;3.75;2.50;;;;;;;20.31;43.40;94907.91;10278089;28;20082;-59
2022/03/31 21:21:13;;;;;;;2.97;2.40;;;;;;;20.31;43.40;94902.50;10295472;28;20063;-60
2022/03/31 21:26:32;;;;;;;6.13;2.65;;;;;;;20.29;43.64;94907.50;10284521;28;20090;-58
2022/03/31 21:31:52;;;;;;;6.45;3.22;;;;;;;20.28;43.57;94907.88;10284850;28;20058;-58
2022/03/31 21:37:12;;;;;;;6.82;3.15;;;;;;;20.28;43.33;94911.34;10288268;28;20051;-58
2022/03/31 21:42:31;;;;;;;5.03;3.05;;;;;;;20.26;43.36;94913.66;10289301;28;20050;-58
2022/03/31 21:47:51;;;;;;;5.85;3.40;;;;;;;20.25;43.30;94909.41;10284915;28;20055;-59
2022/03/31 21:53:10;;;;;;;5.47;3.35;;;;;;;20.25;43.22;94916.75;10279083;28;20095;-58
2022/03/31 21:58:30;;;;;;;6.05;3.35;;;;;;;20.23;43.35;94924.44;10278591;28;20509;-56
2022/03/31 22:03:50;;;;;;;5.25;3.75;;;;;;;20.23;43.71;94921.72;10305809;28;20055;-58
2022/03/31 22:14:51;;;;;;;4.73;3.07;;;;;;;20.19;43.75;94921.72;10289328;28;20051;-57
2022/03/31 22:20:10;;;;;;;5.65;2.90;;;;;;;20.19;43.68;94915.50;10290255;28;20051;-59
2022/03/31 22:25:30;;;;;;;5.68;3.10;;;;;;;20.17;43.59;94918.63;10289395;28;20059;-58
2022/03/31 22:30:49;;;;;;;4.38;2.80;;;;;;;20.14;43.55;94930.94;10299178;28;20058;-58
2022/03/31 22:36:09;;;;;;;5.50;2.90;;;;;;;20.13;43.43;94923.19;10288927;28;20506;-57
2022/03/31 22:41:29;;;;;;;5.25;3.00;;;;;;;20.12;43.41;94924.34;10289676;28;20077;-58
2022/03/31 22:46:50;;;;;;;5.72;2.50;;;;;;;20.11;43.42;94920.06;10289396;28;20054;-59
2022/03/31 22:52:12;;;;;;;4.90;2.83;;;;;;;20.10;43.24;94921.25;10289052;28;20058;-59
2022/03/31 22:57:32;;;;;;;4.68;2.58;;;;;;;20.08;43.24;94921.59;10288490;28;20046;-58
2022/03/31 23:02:52;;;;;;;3.65;2.50;;;;;;;20.07;43.04;94920.06;10288801;28;20565;-58
2022/03/31 23:08:11;;;;;;;3.97;2.58;;;;;;;20.07;43.08;94919.28;10288833;28;20061;-59
2022/03/31 23:13:32;;;;;;;4.63;2.42;;;;;;;20.07;43.15;94916.56;10274283;28;20055;-58
2022/03/31 23:18:52;;;;;;;3.67;2.28;;;;;;;20.05;43.09;94913.47;10300721;28;20089;-59
2022/03/31 23:24:12;;;;;;;3.88;2.63;;;;;;;20.03;42.99;94915.75;10268198;28;20055;-58
2022/03/31 23:29:34;;;;;;;4.10;2.53;;;;;;;20.01;42.92;94916.13;10329067;28;20050;-58
2022/03/31 23:34:53;;;;;;;4.20;2.70;;;;;;;20.02;42.90;94911.53;10295588;28;20147;-59
2022/03/31 23:40:14;;;;;;;3.15;2.22;;;;;;;19.99;43.06;94913.03;10296015;28;20542;-59
2022/03/31 23:45:33;;;;;;;3.88;2.20;;;;;;;19.99;42.84;94906.84;10296288;28;20059;-59
2022/03/31 23:50:53;;;;;;;3.45;2.25;;;;;;;19.97;42.88;94899.09;10295742;28;20054;-58
2022/03/31 23:56:12;;;;;;;3.50;2.40;;;;;;;19.94;42.88;94889.81;10294959;28;20059;-59
